sensor_id;sensor_type;location;lat;lon;timestamp;temperature;humidity
23251;DHT22;11794;49.730;10.088;2022-08-06T00:02:12;18.20;99.90
23251;DHT22;11794;49.730;10.088;2022-08-06T00:04:38;18.20;99.90
23251;DHT22;11794;49.730;10.088;2022-08-06T00:07:03;18.10;99.90
23251;DHT22;11794;49.730;10.088;2022-08-06T00:09:29;18.10;99.90
23251;DHT22;11794;49.730;10.088;2022-08-06T00:11:59;18.00;99.90
23251;DHT22;11794;49.730;10.088;2022-08-06T00:14:26;18.00;99.90
23251;DHT22;11794;49.730;10.088;2022-08-06T00:16:51;18.00;99.90
23251;DHT22;11794;49.730;10.088;2022-08-06T00:19:17;17.90;99.90
23251;DHT22;11794;49.730;10.088;2022-08-06T00:21:43;17.90;99.90
23251;DHT22;11794;49.730;10.088;2022-08-06T00:24:08;17.90;99.90
23251;DHT22;11794;49.730;10.088;2022-08-06T00:26:34;17.90;99.90
23251;DHT22;11794;49.730;10.088;2022-08-06T00:28:59;17.80;99.90
23251;DHT22;11794;49.730;10.088;2022-08-06T00:31:25;17.80;99.90
23251;DHT22;11794;49.730;10.088;2022-08-06T00:33:51;17.70;99.90
23251;DHT22;11794;49.730;10.088;2022-08-06T00:36:16;17.60;99.90
23251;DHT22;11794;49.730;10.088;2022-08-06T00:38:42;17.60;99.90
23251;DHT22;11794;49.730;10.088;2022-08-06T00:41:07;17.60;99.90
23251;DHT22;11794;49.730;10.088;2022-08-06T00:43:33;17.50;99.90
23251;DHT22;11794;49.730;10.088;2022-08-06T00:45:58;17.50;99.90
23251;DHT22;11794;49.730;10.088;2022-08-06T00:48:24;17.50;99.90
23251;DHT22;11794;49.730;10.088;2022-08-06T00:50:49;17.50;99.90
23251;DHT22;11794;49.730;10.088;2022-08-06T00:53:15;17.50;99.90
23251;DHT22;11794;49.730;10.088;2022-08-06T00:55:40;17.50;99.90
23251;DHT22;11794;49.730;10.088;2022-08-06T00:58:06;17.40;99.90
23251;DHT22;11794;49.730;10.088;2022-08-06T01:00:33;17.50;99.90
23251;DHT22;11794;49.730;10.088;2022-08-06T01:02:58;17.60;99.90
23251;DHT22;11794;49.730;10.088;2022-08-06T01:05:24;17.60;99.90
23251;DHT22;11794;49.730;10.088;2022-08-06T01:07:49;17.70;99.90
23251;DHT22;11794;49.730;10.088;2022-08-06T01:10:15;17.60;99.90
23251;DHT22;11794;49.730;10.088;2022-08-06T01:12:40;17.70;99.90
23251;DHT22;11794;49.730;10.088;2022-08-06T01:15:06;17.70;99.90
23251;DHT22;11794;49.730;10.088;2022-08-06T01:22:57;17.70;99.90
23251;DHT22;11794;49.730;10.088;2022-08-06T01:25:44;17.60;99.90
23251;DHT22;11794;49.730;10.088;2022-08-06T01:28:16;17.50;99.90
23251;DHT22;11794;49.730;10.088;2022-08-06T01:30:51;17.40;99.90
23251;DHT22;11794;49.730;10.088;2022-08-06T01:33:27;17.30;99.90
23251;DHT22;11794;49.730;10.088;2022-08-06T01:35:57;17.10;99.90
23251;DHT22;11794;49.730;10.088;2022-08-06T01:38:32;17.10;99.90
23251;DHT22;11794;49.730;10.088;2022-08-06T01:41:02;17.00;99.90
23251;DHT22;11794;49.730;10.088;2022-08-06T01:43:31;17.00;99.90
23251;DHT22;11794;49.730;10.088;2022-08-06T01:45:57;16.90;99.90
23251;DHT22;11794;49.730;10.088;2022-08-06T01:48:26;17.00;99.90
23251;DHT22;11794;49.730;10.088;2022-08-06T01:50:55;16.90;99.90
23251;DHT22;11794;49.730;10.088;2022-08-06T01:53:28;16.80;99.90
23251;DHT22;11794;49.730;10.088;2022-08-06T01:55:59;16.80;99.90
23251;DHT22;11794;49.730;10.088;2022-08-06T01:58:28;16.70;99.90
23251;DHT22;11794;49.730;10.088;2022-08-06T02:00:55;16.60;99.90
23251;DHT22;11794;49.730;10.088;2022-08-06T02:03:33;16.60;99.90
23251;DHT22;11794;49.730;10.088;2022-08-06T02:06:01;16.50;99.90
23251;DHT22;11794;49.730;10.088;2022-08-06T02:08:30;16.50;99.90
23251;DHT22;11794;49.730;10.088;2022-08-06T02:10:57;16.40;99.90
23251;DHT22;11794;49.730;10.088;2022-08-06T02:13:26;16.40;99.90
23251;DHT22;11794;49.730;10.088;2022-08-06T02:15:55;16.30;99.90
23251;DHT22;11794;49.730;10.088;2022-08-06T02:18:21;16.30;99.90
23251;DHT22;11794;49.730;10.088;2022-08-06T02:20:50;16.30;99.90
23251;DHT22;11794;49.730;10.088;2022-08-06T02:23:19;16.20;99.90
23251;DHT22;11794;49.730;10.088;2022-08-06T02:25:46;16.20;99.90
23251;DHT22;11794;49.730;10.088;2022-08-06T02:28:14;16.10;99.90
23251;DHT22;11794;49.730;10.088;2022-08-06T02:30:43;16.10;99.90
23251;DHT22;11794;49.730;10.088;2022-08-06T02:33:10;16.20;99.90
23251;DHT22;11794;49.730;10.088;2022-08-06T02:35:44;16.10;99.90
23251;DHT22;11794;49.730;10.088;2022-08-06T02:38:23;16.00;99.90
23251;DHT22;11794;49.730;10.088;2022-08-06T02:40:57;15.90;99.90
23251;DHT22;11794;49.730;10.088;2022-08-06T02:43:34;15.90;99.90
23251;DHT22;11794;49.730;10.088;2022-08-06T02:46:27;15.90;99.90
23251;DHT22;11794;49.730;10.088;2022-08-06T02:49:18;15.90;99.90
23251;DHT22;11794;49.730;10.088;2022-08-06T02:51:51;15.90;99.90
23251;DHT22;11794;49.730;10.088;2022-08-06T02:54:37;15.90;99.90
23251;DHT22;11794;49.730;10.088;2022-08-06T02:57:06;15.80;99.90
23251;DHT22;11794;49.730;10.088;2022-08-06T02:59:35;15.80;99.90
23251;DHT22;11794;49.730;10.088;2022-08-06T03:02:06;15.80;99.90
23251;DHT22;11794;49.730;10.088;2022-08-06T03:04:36;15.80;99.90
23251;DHT22;11794;49.730;10.088;2022-08-06T03:07:05;15.80;99.90
23251;DHT22;11794;49.730;10.088;2022-08-06T03:09:33;15.80;99.90
23251;DHT22;11794;49.730;10.088;2022-08-06T03:11:59;15.70;99.90
23251;DHT22;11794;49.730;10.088;2022-08-06T03:14:26;15.70;99.90
23251;DHT22;11794;49.730;10.088;2022-08-06T03:16:53;15.70;99.90
23251;DHT22;11794;49.730;10.088;2022-08-06T03:19:20;15.60;99.90
23251;DHT22;11794;49.730;10.088;2022-08-06T03:21:47;15.60;99.90
23251;DHT22;11794;49.730;10.088;2022-08-06T03:24:14;15.60;99.90
23251;DHT22;11794;49.730;10.088;2022-08-06T03:26:40;15.60;99.90
23251;DHT22;11794;49.730;10.088;2022-08-06T03:29:07;15.60;99.90
23251;DHT22;11794;49.730;10.088;2022-08-06T03:31:34;15.60;99.90
23251;DHT22;11794;49.730;10.088;2022-08-06T03:34:01;15.50;99.90
23251;DHT22;11794;49.730;10.088;2022-08-06T03:36:27;15.50;99.90
23251;DHT22;11794;49.730;10.088;2022-08-06T03:39:04;15.50;99.90
23251;DHT22;11794;49.730;10.088;2022-08-06T03:41:34;15.40;99.90
23251;DHT22;11794;49.730;10.088;2022-08-06T03:44:00;15.50;99.90
23251;DHT22;11794;49.730;10.088;2022-08-06T03:46:42;15.50;99.90
23251;DHT22;11794;49.730;10.088;2022-08-06T03:49:12;15.50;99.90
23251;DHT22;11794;49.730;10.088;2022-08-06T03:51:39;15.50;99.90
23251;DHT22;11794;49.730;10.088;2022-08-06T03:54:06;15.50;99.90
23251;DHT22;11794;49.730;10.088;2022-08-06T03:56:33;15.50;99.90
23251;DHT22;11794;49.730;10.088;2022-08-06T03:59:03;15.50;99.90
23251;DHT22;11794;49.730;10.088;2022-08-06T04:01:35;15.40;99.90
23251;DHT22;11794;49.730;10.088;2022-08-06T04:04:02;15.50;99.90
23251;DHT22;11794;49.730;10.088;2022-08-06T04:06:29;15.40;99.90
23251;DHT22;11794;49.730;10.088;2022-08-06T04:08:55;15.40;99.90
23251;DHT22;11794;49.730;10.088;2022-08-06T04:11:23;15.30;99.90
23251;DHT22;11794;49.730;10.088;2022-08-06T04:13:49;15.30;99.90
23251;DHT22;11794;49.730;10.088;2022-08-06T04:16:16;15.30;99.90
23251;DHT22;11794;49.730;10.088;2022-08-06T04:18:43;15.30;99.90
23251;DHT22;11794;49.730;10.088;2022-08-06T04:21:19;15.30;99.90
23251;DHT22;11794;49.730;10.088;2022-08-06T04:23:45;15.20;99.90
23251;DHT22;11794;49.730;10.088;2022-08-06T04:26:12;15.20;99.90
23251;DHT22;11794;49.730;10.088;2022-08-06T04:28:41;15.20;99.90
23251;DHT22;11794;49.730;10.088;2022-08-06T04:31:08;15.20;99.90
23251;DHT22;11794;49.730;10.088;2022-08-06T04:33:35;15.20;99.90
23251;DHT22;11794;49.730;10.088;2022-08-06T04:36:04;15.20;99.90
23251;DHT22;11794;49.730;10.088;2022-08-06T04:38:31;15.20;99.90
23251;DHT22;11794;49.730;10.088;2022-08-06T04:40:58;15.20;99.90
23251;DHT22;11794;49.730;10.088;2022-08-06T04:43:25;15.20;99.90
23251;DHT22;11794;49.730;10.088;2022-08-06T04:45:51;15.10;99.90
23251;DHT22;11794;49.730;10.088;2022-08-06T04:48:18;15.10;99.90
23251;DHT22;11794;49.730;10.088;2022-08-06T04:50:44;15.00;99.90
23251;DHT22;11794;49.730;10.088;2022-08-06T04:53:11;15.00;99.90
23251;DHT22;11794;49.730;10.088;2022-08-06T04:55:38;15.00;99.90
23251;DHT22;11794;49.730;10.088;2022-08-06T04:58:06;15.00;99.90
23251;DHT22;11794;49.730;10.088;2022-08-06T05:00:34;15.10;99.90
23251;DHT22;11794;49.730;10.088;2022-08-06T05:03:00;15.10;99.90
23251;DHT22;11794;49.730;10.088;2022-08-06T05:05:26;15.10;99.90
23251;DHT22;11794;49.730;10.088;2022-08-06T05:07:54;15.20;99.90
23251;DHT22;11794;49.730;10.088;2022-08-06T05:10:22;15.20;99.90
23251;DHT22;11794;49.730;10.088;2022-08-06T05:12:54;15.20;99.90
23251;DHT22;11794;49.730;10.088;2022-08-06T05:15:32;15.30;99.90
23251;DHT22;11794;49.730;10.088;2022-08-06T05:18:04;15.40;99.90
23251;DHT22;11794;49.730;10.088;2022-08-06T05:20:33;15.40;99.90
23251;DHT22;11794;49.730;10.088;2022-08-06T05:23:07;15.60;99.90
23251;DHT22;11794;49.730;10.088;2022-08-06T05:25:36;15.70;99.90
23251;DHT22;11794;49.730;10.088;2022-08-06T05:28:02;15.70;99.90
23251;DHT22;11794;49.730;10.088;2022-08-06T05:30:28;15.80;99.90
23251;DHT22;11794;49.730;10.088;2022-08-06T05:32:53;15.90;99.90
23251;DHT22;11794;49.730;10.088;2022-08-06T05:35:19;16.00;99.90
23251;DHT22;11794;49.730;10.088;2022-08-06T05:37:44;16.10;99.90
23251;DHT22;11794;49.730;10.088;2022-08-06T05:40:10;16.10;99.90
23251;DHT22;11794;49.730;10.088;2022-08-06T05:42:35;16.20;99.90
23251;DHT22;11794;49.730;10.088;2022-08-06T05:45:01;16.20;99.90
23251;DHT22;11794;49.730;10.088;2022-08-06T05:47:34;16.20;99.90
23251;DHT22;11794;49.730;10.088;2022-08-06T05:50:09;16.20;99.90
23251;DHT22;11794;49.730;10.088;2022-08-06T05:52:54;16.30;99.90
23251;DHT22;11794;49.730;10.088;2022-08-06T05:55:21;16.40;99.90
23251;DHT22;11794;49.730;10.088;2022-08-06T05:57:55;16.50;99.90
23251;DHT22;11794;49.730;10.088;2022-08-06T06:00:23;16.60;99.90
23251;DHT22;11794;49.730;10.088;2022-08-06T06:02:52;16.70;99.90
23251;DHT22;11794;49.730;10.088;2022-08-06T06:05:20;16.80;99.90
23251;DHT22;11794;49.730;10.088;2022-08-06T06:07:47;16.90;99.90
23251;DHT22;11794;49.730;10.088;2022-08-06T06:10:13;17.00;99.90
23251;DHT22;11794;49.730;10.088;2022-08-06T06:12:40;17.00;99.90
23251;DHT22;11794;49.730;10.088;2022-08-06T06:15:07;17.10;99.90
23251;DHT22;11794;49.730;10.088;2022-08-06T06:38:14;17.80;99.90
23251;DHT22;11794;49.730;10.088;2022-08-06T06:46:25;18.10;99.90
23251;DHT22;11794;49.730;10.088;2022-08-06T06:48:55;18.30;99.90
23251;DHT22;11794;49.730;10.088;2022-08-06T06:51:34;18.40;99.90
23251;DHT22;11794;49.730;10.088;2022-08-06T06:54:01;18.40;99.10
23251;DHT22;11794;49.730;10.088;2022-08-06T06:56:31;18.30;98.40
23251;DHT22;11794;49.730;10.088;2022-08-06T06:59:01;18.40;98.10
23251;DHT22;11794;49.730;10.088;2022-08-06T07:01:28;18.40;97.80
23251;DHT22;11794;49.730;10.088;2022-08-06T07:03:57;18.40;97.50
23251;DHT22;11794;49.730;10.088;2022-08-06T07:06:25;18.50;97.60
23251;DHT22;11794;49.730;10.088;2022-08-06T07:08:52;18.60;97.30
23251;DHT22;11794;49.730;10.088;2022-08-06T07:11:23;18.60;97.20
23251;DHT22;11794;49.730;10.088;2022-08-06T07:13:50;18.70;97.40
23251;DHT22;11794;49.730;10.088;2022-08-06T07:16:18;18.80;97.00
23251;DHT22;11794;49.730;10.088;2022-08-06T07:18:45;18.90;96.90
23251;DHT22;11794;49.730;10.088;2022-08-06T07:21:14;19.00;96.90
23251;DHT22;11794;49.730;10.088;2022-08-06T07:23:40;19.00;96.40
23251;DHT22;11794;49.730;10.088;2022-08-06T07:26:06;19.20;96.30
23251;DHT22;11794;49.730;10.088;2022-08-06T07:28:34;19.20;96.40
23251;DHT22;11794;49.730;10.088;2022-08-06T07:31:04;19.40;96.20
23251;DHT22;11794;49.730;10.088;2022-08-06T07:33:31;19.40;95.90
23251;DHT22;11794;49.730;10.088;2022-08-06T07:35:57;19.50;95.80
23251;DHT22;11794;49.730;10.088;2022-08-06T07:38:26;19.60;95.30
23251;DHT22;11794;49.730;10.088;2022-08-06T07:40:54;19.70;94.90
23251;DHT22;11794;49.730;10.088;2022-08-06T07:43:25;19.80;94.80
23251;DHT22;11794;49.730;10.088;2022-08-06T07:45:54;20.10;94.00
23251;DHT22;11794;49.730;10.088;2022-08-06T07:48:28;20.00;93.40
23251;DHT22;11794;49.730;10.088;2022-08-06T07:50:56;20.10;93.30
23251;DHT22;11794;49.730;10.088;2022-08-06T07:53:24;20.30;93.00
23251;DHT22;11794;49.730;10.088;2022-08-06T07:55:50;20.40;92.50
23251;DHT22;11794;49.730;10.088;2022-08-06T07:58:16;20.40;92.30
23251;DHT22;11794;49.730;10.088;2022-08-06T08:00:42;20.40;92.30
23251;DHT22;11794;49.730;10.088;2022-08-06T08:03:09;20.60;92.40
23251;DHT22;11794;49.730;10.088;2022-08-06T08:05:54;21.10;90.80
23251;DHT22;11794;49.730;10.088;2022-08-06T08:08:41;21.50;89.90
23251;DHT22;11794;49.730;10.088;2022-08-06T08:11:07;22.00;87.50
23251;DHT22;11794;49.730;10.088;2022-08-06T08:13:34;22.20;86.70
23251;DHT22;11794;49.730;10.088;2022-08-06T08:16:00;22.40;86.70
23251;DHT22;11794;49.730;10.088;2022-08-06T08:18:30;22.50;86.60
23251;DHT22;11794;49.730;10.088;2022-08-06T08:20:58;22.50;86.10
23251;DHT22;11794;49.730;10.088;2022-08-06T08:23:24;22.90;86.00
23251;DHT22;11794;49.730;10.088;2022-08-06T08:25:50;23.50;83.20
23251;DHT22;11794;49.730;10.088;2022-08-06T08:28:15;23.50;81.80
23251;DHT22;11794;49.730;10.088;2022-08-06T08:30:42;23.50;82.10
23251;DHT22;11794;49.730;10.088;2022-08-06T08:33:08;23.60;81.70
23251;DHT22;11794;49.730;10.088;2022-08-06T08:35:34;23.80;79.80
23251;DHT22;11794;49.730;10.088;2022-08-06T08:38:00;23.80;79.10
23251;DHT22;11794;49.730;10.088;2022-08-06T08:40:26;23.80;80.10
23251;DHT22;11794;49.730;10.088;2022-08-06T08:42:54;24.10;79.90
23251;DHT22;11794;49.730;10.088;2022-08-06T08:45:24;24.20;79.30
23251;DHT22;11794;49.730;10.088;2022-08-06T08:47:52;24.70;78.20
23251;DHT22;11794;49.730;10.088;2022-08-06T08:50:20;24.90;77.50
23251;DHT22;11794;49.730;10.088;2022-08-06T08:52:47;25.10;77.10
23251;DHT22;11794;49.730;10.088;2022-08-06T08:55:15;25.00;75.60
23251;DHT22;11794;49.730;10.088;2022-08-06T08:57:41;25.00;76.00
23251;DHT22;11794;49.730;10.088;2022-08-06T09:00:08;25.20;76.20
23251;DHT22;11794;49.730;10.088;2022-08-06T09:02:39;25.60;75.00
23251;DHT22;11794;49.730;10.088;2022-08-06T09:05:05;25.70;74.10
23251;DHT22;11794;49.730;10.088;2022-08-06T09:07:31;25.90;73.20
23251;DHT22;11794;49.730;10.088;2022-08-06T09:09:58;25.90;73.80
23251;DHT22;11794;49.730;10.088;2022-08-06T09:12:24;25.90;73.40
23251;DHT22;11794;49.730;10.088;2022-08-06T09:14:50;26.20;72.50
23251;DHT22;11794;49.730;10.088;2022-08-06T09:17:16;26.40;72.40
23251;DHT22;11794;49.730;10.088;2022-08-06T09:19:42;26.30;71.70
23251;DHT22;11794;49.730;10.088;2022-08-06T09:22:09;26.20;72.10
23251;DHT22;11794;49.730;10.088;2022-08-06T09:24:35;26.30;71.50
23251;DHT22;11794;49.730;10.088;2022-08-06T09:29:48;26.70;70.60
23251;DHT22;11794;49.730;10.088;2022-08-06T09:32:38;26.90;70.10
23251;DHT22;11794;49.730;10.088;2022-08-06T09:35:25;26.80;68.50
23251;DHT22;11794;49.730;10.088;2022-08-06T09:38:04;26.80;68.50
23251;DHT22;11794;49.730;10.088;2022-08-06T09:40:30;26.90;66.90
23251;DHT22;11794;49.730;10.088;2022-08-06T09:42:56;27.10;68.20
23251;DHT22;11794;49.730;10.088;2022-08-06T09:45:24;27.30;66.00
23251;DHT22;11794;49.730;10.088;2022-08-06T09:48:02;27.30;65.20
23251;DHT22;11794;49.730;10.088;2022-08-06T09:50:44;27.50;65.20
23251;DHT22;11794;49.730;10.088;2022-08-06T09:53:12;27.60;64.90
23251;DHT22;11794;49.730;10.088;2022-08-06T09:55:38;27.50;65.30
23251;DHT22;11794;49.730;10.088;2022-08-06T09:58:05;27.70;64.60
23251;DHT22;11794;49.730;10.088;2022-08-06T10:00:33;27.70;65.50
23251;DHT22;11794;49.730;10.088;2022-08-06T10:03:01;28.20;64.60
23251;DHT22;11794;49.730;10.088;2022-08-06T10:05:28;28.10;61.10
23251;DHT22;11794;49.730;10.088;2022-08-06T10:08:03;28.00;60.60
23251;DHT22;11794;49.730;10.088;2022-08-06T10:13:25;28.20;60.30
23251;DHT22;11794;49.730;10.088;2022-08-06T10:15:53;28.40;60.80
23251;DHT22;11794;49.730;10.088;2022-08-06T10:18:52;28.70;60.50
23251;DHT22;11794;49.730;10.088;2022-08-06T10:21:20;28.70;58.90
23251;DHT22;11794;49.730;10.088;2022-08-06T10:23:49;28.60;60.60
23251;DHT22;11794;49.730;10.088;2022-08-06T10:26:28;28.70;59.00
23251;DHT22;11794;49.730;10.088;2022-08-06T10:28:54;29.00;58.20
23251;DHT22;11794;49.730;10.088;2022-08-06T10:31:20;29.40;58.30
23251;DHT22;11794;49.730;10.088;2022-08-06T10:34:15;29.70;57.10
23251;DHT22;11794;49.730;10.088;2022-08-06T10:36:49;29.50;56.70
23251;DHT22;11794;49.730;10.088;2022-08-06T10:39:16;29.40;55.30
23251;DHT22;11794;49.730;10.088;2022-08-06T10:41:46;29.20;55.80
23251;DHT22;11794;49.730;10.088;2022-08-06T10:44:12;29.20;56.90
23251;DHT22;11794;49.730;10.088;2022-08-06T10:46:38;29.60;55.00
23251;DHT22;11794;49.730;10.088;2022-08-06T10:49:05;30.30;55.00
23251;DHT22;11794;49.730;10.088;2022-08-06T10:51:32;30.20;55.10
23251;DHT22;11794;49.730;10.088;2022-08-06T10:53:58;30.10;53.70
23251;DHT22;11794;49.730;10.088;2022-08-06T10:56:25;30.00;52.20
23251;DHT22;11794;49.730;10.088;2022-08-06T10:58:52;29.80;53.70
23251;DHT22;11794;49.730;10.088;2022-08-06T11:04:20;30.10;53.10
23251;DHT22;11794;49.730;10.088;2022-08-06T11:15:09;30.80;52.60
23251;DHT22;11794;49.730;10.088;2022-08-06T11:17:49;30.80;52.00
23251;DHT22;11794;49.730;10.088;2022-08-06T11:20:34;30.70;51.80
23251;DHT22;11794;49.730;10.088;2022-08-06T11:23:22;30.50;51.80
23251;DHT22;11794;49.730;10.088;2022-08-06T11:25:59;30.10;52.00
23251;DHT22;11794;49.730;10.088;2022-08-06T11:30:59;30.70;51.60
23251;DHT22;11794;49.730;10.088;2022-08-06T11:36:26;30.20;50.30
23251;DHT22;11794;49.730;10.088;2022-08-06T11:41:30;30.90;49.40
23251;DHT22;11794;49.730;10.088;2022-08-06T11:54:14;32.10;47.50
23251;DHT22;11794;49.730;10.088;2022-08-06T11:59:24;32.60;49.10
23251;DHT22;11794;49.730;10.088;2022-08-06T12:01:50;32.50;48.50
23251;DHT22;11794;49.730;10.088;2022-08-06T12:07:17;32.10;50.10
23251;DHT22;11794;49.730;10.088;2022-08-06T12:09:44;32.10;48.90
23251;DHT22;11794;49.730;10.088;2022-08-06T12:14:55;32.10;47.70
23251;DHT22;11794;49.730;10.088;2022-08-06T12:17:22;32.00;47.10
23251;DHT22;11794;49.730;10.088;2022-08-06T12:19:50;32.10;47.50
23251;DHT22;11794;49.730;10.088;2022-08-06T12:22:18;32.70;47.20
23251;DHT22;11794;49.730;10.088;2022-08-06T12:24:46;33.00;46.80
23251;DHT22;11794;49.730;10.088;2022-08-06T12:27:14;33.20;46.50
23251;DHT22;11794;49.730;10.088;2022-08-06T12:29:40;33.50;46.70
23251;DHT22;11794;49.730;10.088;2022-08-06T12:32:33;33.90;45.50
23251;DHT22;11794;49.730;10.088;2022-08-06T12:35:01;34.10;45.40
23251;DHT22;11794;49.730;10.088;2022-08-06T12:40:11;33.70;46.70
23251;DHT22;11794;49.730;10.088;2022-08-06T12:43:14;34.30;45.80
23251;DHT22;11794;49.730;10.088;2022-08-06T12:45:40;34.60;45.50
23251;DHT22;11794;49.730;10.088;2022-08-06T12:48:10;35.20;45.10
23251;DHT22;11794;49.730;10.088;2022-08-06T12:50:40;35.20;45.20
23251;DHT22;11794;49.730;10.088;2022-08-06T12:53:08;34.80;44.80
23251;DHT22;11794;49.730;10.088;2022-08-06T12:55:45;34.70;45.80
23251;DHT22;11794;49.730;10.088;2022-08-06T12:58:19;34.60;44.40
23251;DHT22;11794;49.730;10.088;2022-08-06T13:00:52;34.90;44.30
23251;DHT22;11794;49.730;10.088;2022-08-06T13:03:20;35.70;42.90
23251;DHT22;11794;49.730;10.088;2022-08-06T13:05:46;35.50;43.50
23251;DHT22;11794;49.730;10.088;2022-08-06T13:08:12;35.90;43.70
23251;DHT22;11794;49.730;10.088;2022-08-06T13:10:38;35.60;43.50
23251;DHT22;11794;49.730;10.088;2022-08-06T13:13:06;35.10;43.30
23251;DHT22;11794;49.730;10.088;2022-08-06T13:15:35;35.20;43.20
23251;DHT22;11794;49.730;10.088;2022-08-06T13:18:11;35.50;42.80
23251;DHT22;11794;49.730;10.088;2022-08-06T13:20:41;36.10;43.40
23251;DHT22;11794;49.730;10.088;2022-08-06T13:23:08;36.40;42.80
23251;DHT22;11794;49.730;10.088;2022-08-06T13:25:47;36.70;42.00
23251;DHT22;11794;49.730;10.088;2022-08-06T13:28:17;36.60;43.60
23251;DHT22;11794;49.730;10.088;2022-08-06T13:30:44;36.50;42.10
23251;DHT22;11794;49.730;10.088;2022-08-06T13:33:22;36.60;42.00
23251;DHT22;11794;49.730;10.088;2022-08-06T13:36:03;35.90;42.50
23251;DHT22;11794;49.730;10.088;2022-08-06T13:38:32;35.60;43.20
23251;DHT22;11794;49.730;10.088;2022-08-06T13:40:58;36.20;43.30
23251;DHT22;11794;49.730;10.088;2022-08-06T13:43:44;36.70;42.70
23251;DHT22;11794;49.730;10.088;2022-08-06T13:46:15;36.80;41.20
23251;DHT22;11794;49.730;10.088;2022-08-06T13:48:48;36.60;41.20
23251;DHT22;11794;49.730;10.088;2022-08-06T13:51:15;36.00;41.30
23251;DHT22;11794;49.730;10.088;2022-08-06T13:53:41;35.80;42.00
23251;DHT22;11794;49.730;10.088;2022-08-06T13:56:07;36.20;41.90
23251;DHT22;11794;49.730;10.088;2022-08-06T13:58:33;36.40;42.00
23251;DHT22;11794;49.730;10.088;2022-08-06T14:00:58;36.80;40.30
23251;DHT22;11794;49.730;10.088;2022-08-06T14:03:24;36.40;40.70
23251;DHT22;11794;49.730;10.088;2022-08-06T14:05:51;36.10;40.90
23251;DHT22;11794;49.730;10.088;2022-08-06T14:08:16;35.70;41.70
23251;DHT22;11794;49.730;10.088;2022-08-06T14:10:42;36.10;42.10
23251;DHT22;11794;49.730;10.088;2022-08-06T14:13:08;36.40;41.90
23251;DHT22;11794;49.730;10.088;2022-08-06T14:15:48;36.00;41.60
23251;DHT22;11794;49.730;10.088;2022-08-06T14:18:18;36.50;41.20
23251;DHT22;11794;49.730;10.088;2022-08-06T14:20:44;37.10;41.80
23251;DHT22;11794;49.730;10.088;2022-08-06T14:23:11;38.20;39.90
23251;DHT22;11794;49.730;10.088;2022-08-06T14:25:36;37.60;39.90
23251;DHT22;11794;49.730;10.088;2022-08-06T14:28:02;36.40;41.20
23251;DHT22;11794;49.730;10.088;2022-08-06T14:30:28;35.50;42.10
23251;DHT22;11794;49.730;10.088;2022-08-06T14:32:53;34.20;42.30
23251;DHT22;11794;49.730;10.088;2022-08-06T14:35:19;32.60;43.40
23251;DHT22;11794;49.730;10.088;2022-08-06T14:37:45;31.30;44.70
23251;DHT22;11794;49.730;10.088;2022-08-06T14:40:11;30.30;46.00
23251;DHT22;11794;49.730;10.088;2022-08-06T14:42:38;29.60;46.00
23251;DHT22;11794;49.730;10.088;2022-08-06T14:45:22;29.50;46.50
23251;DHT22;11794;49.730;10.088;2022-08-06T14:47:49;28.90;47.00
23251;DHT22;11794;49.730;10.088;2022-08-06T14:50:14;28.70;47.90
23251;DHT22;11794;49.730;10.088;2022-08-06T14:52:40;28.30;48.50
23251;DHT22;11794;49.730;10.088;2022-08-06T14:55:09;28.00;49.30
23251;DHT22;11794;49.730;10.088;2022-08-06T14:57:35;27.70;49.50
23251;DHT22;11794;49.730;10.088;2022-08-06T15:00:03;27.60;50.10
23251;DHT22;11794;49.730;10.088;2022-08-06T15:02:30;27.60;49.50
23251;DHT22;11794;49.730;10.088;2022-08-06T15:04:55;27.60;49.70
23251;DHT22;11794;49.730;10.088;2022-08-06T15:07:21;27.40;49.40
23251;DHT22;11794;49.730;10.088;2022-08-06T15:09:47;27.40;49.50
23251;DHT22;11794;49.730;10.088;2022-08-06T15:12:13;27.40;49.70
23251;DHT22;11794;49.730;10.088;2022-08-06T15:14:38;27.40;49.60
23251;DHT22;11794;49.730;10.088;2022-08-06T15:17:04;27.30;49.40
23251;DHT22;11794;49.730;10.088;2022-08-06T15:19:30;27.30;48.00
23251;DHT22;11794;49.730;10.088;2022-08-06T15:21:55;27.10;48.40
23251;DHT22;11794;49.730;10.088;2022-08-06T15:24:21;26.90;49.20
23251;DHT22;11794;49.730;10.088;2022-08-06T15:26:47;27.00;50.40
23251;DHT22;11794;49.730;10.088;2022-08-06T15:29:13;27.00;49.60
23251;DHT22;11794;49.730;10.088;2022-08-06T15:31:39;26.90;49.80
23251;DHT22;11794;49.730;10.088;2022-08-06T15:34:04;27.00;50.40
23251;DHT22;11794;49.730;10.088;2022-08-06T15:36:30;27.10;50.00
23251;DHT22;11794;49.730;10.088;2022-08-06T15:38:56;27.10;49.80
23251;DHT22;11794;49.730;10.088;2022-08-06T15:41:22;26.90;49.60
23251;DHT22;11794;49.730;10.088;2022-08-06T15:43:50;26.80;49.70
23251;DHT22;11794;49.730;10.088;2022-08-06T15:46:15;26.80;49.40
23251;DHT22;11794;49.730;10.088;2022-08-06T15:48:41;26.90;49.30
23251;DHT22;11794;49.730;10.088;2022-08-06T15:51:07;26.80;49.80
23251;DHT22;11794;49.730;10.088;2022-08-06T15:53:32;26.70;50.30
23251;DHT22;11794;49.730;10.088;2022-08-06T15:55:58;26.50;51.20
23251;DHT22;11794;49.730;10.088;2022-08-06T15:58:23;26.20;50.90
23251;DHT22;11794;49.730;10.088;2022-08-06T16:00:49;26.00;50.40
23251;DHT22;11794;49.730;10.088;2022-08-06T16:03:14;26.00;49.30
23251;DHT22;11794;49.730;10.088;2022-08-06T16:05:42;25.90;51.10
23251;DHT22;11794;49.730;10.088;2022-08-06T16:08:09;25.80;51.50
23251;DHT22;11794;49.730;10.088;2022-08-06T16:10:36;25.90;51.90
23251;DHT22;11794;49.730;10.088;2022-08-06T16:13:05;25.80;51.00
23251;DHT22;11794;49.730;10.088;2022-08-06T16:15:30;25.70;51.10
23251;DHT22;11794;49.730;10.088;2022-08-06T16:17:56;25.60;51.10
23251;DHT22;11794;49.730;10.088;2022-08-06T16:20:21;25.60;51.30
23251;DHT22;11794;49.730;10.088;2022-08-06T16:22:47;25.60;50.50
23251;DHT22;11794;49.730;10.088;2022-08-06T16:25:13;25.60;51.40
23251;DHT22;11794;49.730;10.088;2022-08-06T16:27:38;25.40;51.80
23251;DHT22;11794;49.730;10.088;2022-08-06T16:30:04;25.30;51.60
23251;DHT22;11794;49.730;10.088;2022-08-06T16:32:30;25.30;52.50
23251;DHT22;11794;49.730;10.088;2022-08-06T16:34:55;25.40;51.90
23251;DHT22;11794;49.730;10.088;2022-08-06T16:37:25;25.30;51.90
23251;DHT22;11794;49.730;10.088;2022-08-06T16:39:53;25.40;52.10
23251;DHT22;11794;49.730;10.088;2022-08-06T16:42:19;25.40;51.50
23251;DHT22;11794;49.730;10.088;2022-08-06T16:44:44;25.30;51.00